Hauptseite
METAR-TAF:

METAR-TAF

Flughäfen :

Farmington Regional Airport

Farmington, Missouri, Vereinigte Staaten

Breite: 37-46N, Länge: 090-26W, Höhe: 288 m

Beobachtung

Neuester Wetterbericht von vor 30 Minuten, um 05:56 UTC
Wind 8 kt aus Südwest
Temperatur 15°C
Luftfeuchtigkeit 55%
Luftdruck 1006 hPa
Sichtweite: 16.1 km
Himmel klar

METAR: KFAM 290556Z AUTO 23008KT 10SM CLR 15/06 A2972 RMK AO2 SLP067 T01500061 10189 20150 402170150 50006

Zeit: 01:26 (06:26 UTC)


TAF: fehlend

Wetterbeobachtungen und Prognosen von mehr als 4000 Flughäfen (METAR und TAF Bericht).

Die verfügbaren Stationen werden durch gelbe und rote Markierungen auf der Karte dargestellt.

Führen Sie die Maus auf sie, um den Namen der Station zu sehen.

Darauf klicken, um die Beobachtung von Wetterbeobachtungen und Prognosen zu sehen.

Um die Karte zu ändern : klicken Sie auf den grünen Tasten mit einem schwarzen Kreuz Zum Vergrößern, auf den grünen Button mit einem Gedankenstrich zu verkleinern, oder auf die grünen Pfeile für benachbarte Karten.


METAR-TAF: